sensor_id;sensor_type;location;lat;lon;timestamp;P1;durP1;ratioP1;P2;durP2;ratioP2
42760;SDS011;31672;47.638;19.026;2022-12-07T00:03:30;22.03;;;10.83;;
42760;SDS011;31672;47.638;19.026;2022-12-07T00:08:33;17.53;;;9.40;;
42760;SDS011;31672;47.638;19.026;2022-12-07T00:13:37;15.47;;;8.37;;
42760;SDS011;31672;47.638;19.026;2022-12-07T00:18:41;11.67;;;6.43;;
42760;SDS011;31672;47.638;19.026;2022-12-07T00:23:45;14.93;;;6.50;;
42760;SDS011;31672;47.638;19.026;2022-12-07T00:28:51;9.67;;;5.83;;
42760;SDS011;31672;47.638;19.026;2022-12-07T00:33:57;13.40;;;6.53;;
42760;SDS011;31672;47.638;19.026;2022-12-07T00:39:00;10.03;;;5.70;;
42760;SDS011;31672;47.638;19.026;2022-12-07T00:44:04;10.13;;;4.77;;
42760;SDS011;31672;47.638;19.026;2022-12-07T00:49:07;10.53;;;5.57;;
42760;SDS011;31672;47.638;19.026;2022-12-07T00:54:10;10.47;;;5.87;;
42760;SDS011;31672;47.638;19.026;2022-12-07T00:59:13;10.73;;;5.60;;
42760;SDS011;31672;47.638;19.026;2022-12-07T01:04:17;13.00;;;6.00;;
42760;SDS011;31672;47.638;19.026;2022-12-07T01:09:20;13.07;;;6.40;;
42760;SDS011;31672;47.638;19.026;2022-12-07T01:14:23;11.83;;;5.87;;
42760;SDS011;31672;47.638;19.026;2022-12-07T01:19:26;12.13;;;5.80;;
42760;SDS011;31672;47.638;19.026;2022-12-07T01:24:28;12.30;;;6.43;;
42760;SDS011;31672;47.638;19.026;2022-12-07T01:29:31;11.47;;;6.07;;
42760;SDS011;31672;47.638;19.026;2022-12-07T01:34:34;14.20;;;6.40;;
42760;SDS011;31672;47.638;19.026;2022-12-07T01:39:37;13.07;;;6.27;;
42760;SDS011;31672;47.638;19.026;2022-12-07T01:50:20;10.30;;;5.10;;
42760;SDS011;31672;47.638;19.026;2022-12-07T01:55:26;9.03;;;4.90;;
42760;SDS011;31672;47.638;19.026;2022-12-07T02:00:30;5.47;;;3.83;;
42760;SDS011;31672;47.638;19.026;2022-12-07T02:05:33;7.63;;;3.83;;
42760;SDS011;31672;47.638;19.026;2022-12-07T02:10:39;12.03;;;5.67;;
42760;SDS011;31672;47.638;19.026;2022-12-07T02:37:42;7.50;;;4.03;;
42760;SDS011;31672;47.638;19.026;2022-12-07T02:43:08;8.57;;;4.43;;
42760;SDS011;31672;47.638;19.026;2022-12-07T02:48:27;7.03;;;4.27;;
42760;SDS011;31672;47.638;19.026;2022-12-07T02:53:32;8.27;;;4.60;;
42760;SDS011;31672;47.638;19.026;2022-12-07T03:09:38;7.07;;;3.83;;
42760;SDS011;31672;47.638;19.026;2022-12-07T03:14:57;5.43;;;3.50;;
42760;SDS011;31672;47.638;19.026;2022-12-07T03:20:38;8.10;;;4.45;;
42760;SDS011;31672;47.638;19.026;2022-12-07T03:25:48;9.20;;;5.03;;
42760;SDS011;31672;47.638;19.026;2022-12-07T03:31:03;7.47;;;4.90;;
42760;SDS011;31672;47.638;19.026;2022-12-07T03:36:21;9.70;;;5.43;;
42760;SDS011;31672;47.638;19.026;2022-12-07T03:41:37;11.97;;;4.80;;
42760;SDS011;31672;47.638;19.026;2022-12-07T03:52:24;9.90;;;5.23;;
42760;SDS011;31672;47.638;19.026;2022-12-07T03:58:07;8.07;;;4.80;;
42760;SDS011;31672;47.638;19.026;2022-12-07T04:03:19;7.97;;;4.50;;
42760;SDS011;31672;47.638;19.026;2022-12-07T04:08:22;5.63;;;3.40;;
42760;SDS011;31672;47.638;19.026;2022-12-07T04:13:25;4.90;;;3.20;;
42760;SDS011;31672;47.638;19.026;2022-12-07T04:18:27;10.57;;;3.53;;
42760;SDS011;31672;47.638;19.026;2022-12-07T04:23:30;6.37;;;3.33;;
42760;SDS011;31672;47.638;19.026;2022-12-07T04:28:33;6.67;;;3.87;;
42760;SDS011;31672;47.638;19.026;2022-12-07T04:33:36;8.67;;;4.20;;
42760;SDS011;31672;47.638;19.026;2022-12-07T04:38:39;7.60;;;4.43;;
42760;SDS011;31672;47.638;19.026;2022-12-07T04:43:42;8.20;;;3.97;;
42760;SDS011;31672;47.638;19.026;2022-12-07T04:48:45;8.77;;;4.83;;
42760;SDS011;31672;47.638;19.026;2022-12-07T04:53:48;6.90;;;4.40;;
42760;SDS011;31672;47.638;19.026;2022-12-07T04:58:52;8.50;;;4.83;;
42760;SDS011;31672;47.638;19.026;2022-12-07T05:03:56;8.80;;;5.03;;
42760;SDS011;31672;47.638;19.026;2022-12-07T05:09:00;9.53;;;4.53;;
42760;SDS011;31672;47.638;19.026;2022-12-07T05:14:15;8.33;;;4.73;;
42760;SDS011;31672;47.638;19.026;2022-12-07T05:19:21;9.37;;;5.20;;
42760;SDS011;31672;47.638;19.026;2022-12-07T05:24:24;9.50;;;5.40;;
42760;SDS011;31672;47.638;19.026;2022-12-07T05:29:27;9.73;;;4.83;;
42760;SDS011;31672;47.638;19.026;2022-12-07T05:34:29;10.53;;;5.60;;
42760;SDS011;31672;47.638;19.026;2022-12-07T05:39:32;8.57;;;4.10;;
42760;SDS011;31672;47.638;19.026;2022-12-07T05:44:35;8.43;;;5.07;;
42760;SDS011;31672;47.638;19.026;2022-12-07T05:49:38;11.00;;;5.50;;
42760;SDS011;31672;47.638;19.026;2022-12-07T05:54:42;10.23;;;5.63;;
42760;SDS011;31672;47.638;19.026;2022-12-07T05:59:45;12.57;;;5.70;;
42760;SDS011;31672;47.638;19.026;2022-12-07T06:04:47;10.35;;;6.35;;
42760;SDS011;31672;47.638;19.026;2022-12-07T06:09:52;13.97;;;6.47;;
42760;SDS011;31672;47.638;19.026;2022-12-07T06:14:54;10.50;;;6.23;;
42760;SDS011;31672;47.638;19.026;2022-12-07T06:19:58;12.77;;;6.87;;
42760;SDS011;31672;47.638;19.026;2022-12-07T06:25:01;16.83;;;8.20;;
42760;SDS011;31672;47.638;19.026;2022-12-07T06:30:10;14.83;;;6.97;;
42760;SDS011;31672;47.638;19.026;2022-12-07T06:35:13;14.47;;;7.07;;
42760;SDS011;31672;47.638;19.026;2022-12-07T06:40:16;14.57;;;8.03;;
42760;SDS011;31672;47.638;19.026;2022-12-07T06:45:19;14.33;;;7.23;;
42760;SDS011;31672;47.638;19.026;2022-12-07T06:50:22;16.30;;;8.60;;
42760;SDS011;31672;47.638;19.026;2022-12-07T06:55:25;17.00;;;9.03;;
42760;SDS011;31672;47.638;19.026;2022-12-07T07:00:28;17.50;;;9.37;;
42760;SDS011;31672;47.638;19.026;2022-12-07T07:05:31;19.43;;;10.07;;
42760;SDS011;31672;47.638;19.026;2022-12-07T07:10:35;17.97;;;9.17;;
42760;SDS011;31672;47.638;19.026;2022-12-07T07:15:38;16.37;;;8.63;;
42760;SDS011;31672;47.638;19.026;2022-12-07T07:20:41;17.43;;;9.80;;
42760;SDS011;31672;47.638;19.026;2022-12-07T07:25:44;14.63;;;8.80;;
42760;SDS011;31672;47.638;19.026;2022-12-07T07:30:48;19.30;;;10.53;;
42760;SDS011;31672;47.638;19.026;2022-12-07T07:35:52;17.20;;;9.27;;
42760;SDS011;31672;47.638;19.026;2022-12-07T07:40:55;14.47;;;8.13;;
42760;SDS011;31672;47.638;19.026;2022-12-07T07:45:58;16.67;;;8.10;;
42760;SDS011;31672;47.638;19.026;2022-12-07T07:51:04;19.20;;;9.83;;
42760;SDS011;31672;47.638;19.026;2022-12-07T07:56:09;18.83;;;10.23;;
42760;SDS011;31672;47.638;19.026;2022-12-07T08:01:12;17.20;;;8.63;;
42760;SDS011;31672;47.638;19.026;2022-12-07T08:06:16;16.90;;;9.00;;
42760;SDS011;31672;47.638;19.026;2022-12-07T08:11:19;16.37;;;9.57;;
42760;SDS011;31672;47.638;19.026;2022-12-07T08:16:22;16.07;;;8.60;;
42760;SDS011;31672;47.638;19.026;2022-12-07T08:21:25;15.27;;;9.00;;
42760;SDS011;31672;47.638;19.026;2022-12-07T08:26:28;24.27;;;11.43;;
42760;SDS011;31672;47.638;19.026;2022-12-07T08:31:31;21.30;;;12.30;;
42760;SDS011;31672;47.638;19.026;2022-12-07T08:36:34;19.90;;;11.20;;
42760;SDS011;31672;47.638;19.026;2022-12-07T08:41:38;17.00;;;9.20;;
42760;SDS011;31672;47.638;19.026;2022-12-07T08:46:43;18.57;;;9.57;;
42760;SDS011;31672;47.638;19.026;2022-12-07T08:51:56;13.80;;;8.67;;
42760;SDS011;31672;47.638;19.026;2022-12-07T08:56:59;16.43;;;9.53;;
42760;SDS011;31672;47.638;19.026;2022-12-07T09:02:02;15.67;;;8.93;;
42760;SDS011;31672;47.638;19.026;2022-12-07T09:07:06;14.07;;;8.07;;
42760;SDS011;31672;47.638;19.026;2022-12-07T09:12:10;12.10;;;7.83;;
42760;SDS011;31672;47.638;19.026;2022-12-07T09:17:13;9.73;;;6.20;;
42760;SDS011;31672;47.638;19.026;2022-12-07T09:22:16;12.30;;;6.60;;
42760;SDS011;31672;47.638;19.026;2022-12-07T09:27:19;11.97;;;6.93;;
42760;SDS011;31672;47.638;19.026;2022-12-07T09:32:22;11.70;;;6.63;;
42760;SDS011;31672;47.638;19.026;2022-12-07T09:37:25;9.90;;;5.80;;
42760;SDS011;31672;47.638;19.026;2022-12-07T09:42:38;10.20;;;6.07;;
42760;SDS011;31672;47.638;19.026;2022-12-07T09:47:47;8.93;;;5.23;;
42760;SDS011;31672;47.638;19.026;2022-12-07T09:52:50;11.90;;;6.83;;
42760;SDS011;31672;47.638;19.026;2022-12-07T09:57:55;10.20;;;6.40;;
42760;SDS011;31672;47.638;19.026;2022-12-07T10:03:00;8.53;;;5.07;;
42760;SDS011;31672;47.638;19.026;2022-12-07T10:08:07;11.53;;;5.77;;
42760;SDS011;31672;47.638;19.026;2022-12-07T10:13:14;14.10;;;7.67;;
42760;SDS011;31672;47.638;19.026;2022-12-07T10:24:03;10.97;;;6.17;;
42760;SDS011;31672;47.638;19.026;2022-12-07T10:29:29;12.77;;;7.40;;
42760;SDS011;31672;47.638;19.026;2022-12-07T10:34:39;12.87;;;7.43;;
42760;SDS011;31672;47.638;19.026;2022-12-07T10:39:53;15.07;;;9.27;;
42760;SDS011;31672;47.638;19.026;2022-12-07T11:01:34;7.43;;;4.43;;
42760;SDS011;31672;47.638;19.026;2022-12-07T11:12:17;5.97;;;3.17;;
42760;SDS011;31672;47.638;19.026;2022-12-07T11:28:14;6.80;;;4.10;;
42760;SDS011;31672;47.638;19.026;2022-12-07T11:34:06;9.50;;;4.87;;
42760;SDS011;31672;47.638;19.026;2022-12-07T11:39:22;7.70;;;4.30;;
42760;SDS011;31672;47.638;19.026;2022-12-07T11:44:43;9.13;;;5.20;;
42760;SDS011;31672;47.638;19.026;2022-12-07T11:50:33;10.60;;;6.03;;
42760;SDS011;31672;47.638;19.026;2022-12-07T11:55:57;10.67;;;6.47;;
42760;SDS011;31672;47.638;19.026;2022-12-07T12:06:26;11.57;;;6.47;;
42760;SDS011;31672;47.638;19.026;2022-12-07T12:28:03;7.97;;;4.83;;
42760;SDS011;31672;47.638;19.026;2022-12-07T12:33:27;10.00;;;4.70;;
42760;SDS011;31672;47.638;19.026;2022-12-07T12:38:33;9.83;;;5.57;;
42760;SDS011;31672;47.638;19.026;2022-12-07T12:43:51;12.80;;;6.73;;
42760;SDS011;31672;47.638;19.026;2022-12-07T12:54:21;7.13;;;4.37;;
42760;SDS011;31672;47.638;19.026;2022-12-07T12:59:38;10.00;;;5.10;;
42760;SDS011;31672;47.638;19.026;2022-12-07T13:04:55;9.33;;;5.13;;
42760;SDS011;31672;47.638;19.026;2022-12-07T13:09:59;7.60;;;5.07;;
42760;SDS011;31672;47.638;19.026;2022-12-07T13:15:27;10.17;;;5.80;;
42760;SDS011;31672;47.638;19.026;2022-12-07T13:20:47;10.98;;;5.78;;
42760;SDS011;31672;47.638;19.026;2022-12-07T13:36:38;5.10;;;2.97;;
42760;SDS011;31672;47.638;19.026;2022-12-07T13:41:49;3.88;;;2.50;;
42760;SDS011;31672;47.638;19.026;2022-12-07T13:47:16;6.27;;;3.60;;
42760;SDS011;31672;47.638;19.026;2022-12-07T13:52:45;6.47;;;3.90;;
42760;SDS011;31672;47.638;19.026;2022-12-07T13:57:49;9.23;;;5.10;;
42760;SDS011;31672;47.638;19.026;2022-12-07T14:08:21;8.73;;;4.97;;
42760;SDS011;31672;47.638;19.026;2022-12-07T14:13:30;10.00;;;5.77;;
42760;SDS011;31672;47.638;19.026;2022-12-07T14:18:43;7.87;;;4.50;;
42760;SDS011;31672;47.638;19.026;2022-12-07T14:23:47;9.47;;;5.30;;
42760;SDS011;31672;47.638;19.026;2022-12-07T14:34:27;9.23;;;5.00;;
42760;SDS011;31672;47.638;19.026;2022-12-07T14:39:30;7.10;;;4.43;;
42760;SDS011;31672;47.638;19.026;2022-12-07T14:44:33;9.10;;;5.20;;
42760;SDS011;31672;47.638;19.026;2022-12-07T14:49:40;8.47;;;4.67;;
42760;SDS011;31672;47.638;19.026;2022-12-07T14:54:43;10.50;;;4.60;;
42760;SDS011;31672;47.638;19.026;2022-12-07T14:59:46;10.57;;;5.37;;
42760;SDS011;31672;47.638;19.026;2022-12-07T15:04:49;10.40;;;5.10;;
42760;SDS011;31672;47.638;19.026;2022-12-07T15:09:52;10.87;;;5.60;;
42760;SDS011;31672;47.638;19.026;2022-12-07T15:14:55;13.30;;;5.73;;
42760;SDS011;31672;47.638;19.026;2022-12-07T15:20:00;14.27;;;6.73;;
42760;SDS011;31672;47.638;19.026;2022-12-07T15:25:06;15.03;;;7.60;;
42760;SDS011;31672;47.638;19.026;2022-12-07T15:30:11;19.37;;;9.57;;
42760;SDS011;31672;47.638;19.026;2022-12-07T15:35:14;16.20;;;8.37;;
42760;SDS011;31672;47.638;19.026;2022-12-07T15:40:17;16.90;;;8.70;;
42760;SDS011;31672;47.638;19.026;2022-12-07T15:45:20;21.10;;;10.27;;
42760;SDS011;31672;47.638;19.026;2022-12-07T15:50:23;22.73;;;11.13;;
42760;SDS011;31672;47.638;19.026;2022-12-07T15:55:26;17.37;;;8.60;;
42760;SDS011;31672;47.638;19.026;2022-12-07T16:00:29;38.60;;;15.23;;
42760;SDS011;31672;47.638;19.026;2022-12-07T16:05:32;46.07;;;15.57;;
42760;SDS011;31672;47.638;19.026;2022-12-07T16:10:35;40.70;;;15.87;;
42760;SDS011;31672;47.638;19.026;2022-12-07T16:15:42;35.63;;;15.07;;
42760;SDS011;31672;47.638;19.026;2022-12-07T16:20:47;39.00;;;16.10;;
42760;SDS011;31672;47.638;19.026;2022-12-07T16:25:51;28.13;;;12.43;;
42760;SDS011;31672;47.638;19.026;2022-12-07T16:31:02;26.17;;;11.30;;
42760;SDS011;31672;47.638;19.026;2022-12-07T16:36:14;26.27;;;11.80;;
42760;SDS011;31672;47.638;19.026;2022-12-07T16:41:39;34.70;;;15.37;;
42760;SDS011;31672;47.638;19.026;2022-12-07T16:46:42;29.67;;;14.10;;
42760;SDS011;31672;47.638;19.026;2022-12-07T16:51:45;41.30;;;18.53;;
42760;SDS011;31672;47.638;19.026;2022-12-07T16:57:13;66.57;;;27.30;;
42760;SDS011;31672;47.638;19.026;2022-12-07T17:02:23;94.27;;;36.07;;
42760;SDS011;31672;47.638;19.026;2022-12-07T17:07:26;94.30;;;33.80;;
42760;SDS011;31672;47.638;19.026;2022-12-07T17:12:29;85.27;;;30.53;;
42760;SDS011;31672;47.638;19.026;2022-12-07T17:17:31;110.43;;;38.40;;
42760;SDS011;31672;47.638;19.026;2022-12-07T17:22:35;76.13;;;28.27;;
42760;SDS011;31672;47.638;19.026;2022-12-07T17:27:38;48.43;;;19.83;;
42760;SDS011;31672;47.638;19.026;2022-12-07T17:32:41;36.67;;;18.00;;
42760;SDS011;31672;47.638;19.026;2022-12-07T17:37:44;50.07;;;19.33;;
42760;SDS011;31672;47.638;19.026;2022-12-07T17:42:52;30.70;;;13.37;;
42760;SDS011;31672;47.638;19.026;2022-12-07T17:47:55;27.83;;;12.27;;
42760;SDS011;31672;47.638;19.026;2022-12-07T17:52:58;27.53;;;12.10;;
42760;SDS011;31672;47.638;19.026;2022-12-07T17:58:13;44.87;;;19.97;;
42760;SDS011;31672;47.638;19.026;2022-12-07T18:03:19;50.60;;;21.60;;
42760;SDS011;31672;47.638;19.026;2022-12-07T18:08:22;38.47;;;15.23;;
42760;SDS011;31672;47.638;19.026;2022-12-07T18:13:25;36.17;;;15.30;;
42760;SDS011;31672;47.638;19.026;2022-12-07T18:18:37;31.55;;;15.75;;
42760;SDS011;31672;47.638;19.026;2022-12-07T18:23:42;44.90;;;19.17;;
42760;SDS011;31672;47.638;19.026;2022-12-07T18:28:47;33.67;;;15.90;;
42760;SDS011;31672;47.638;19.026;2022-12-07T18:33:50;41.33;;;18.57;;
42760;SDS011;31672;47.638;19.026;2022-12-07T18:38:57;50.43;;;23.97;;
42760;SDS011;31672;47.638;19.026;2022-12-07T18:44:01;70.13;;;27.50;;
42760;SDS011;31672;47.638;19.026;2022-12-07T18:49:06;107.40;;;39.47;;
42760;SDS011;31672;47.638;19.026;2022-12-07T18:54:13;89.60;;;34.73;;
42760;SDS011;31672;47.638;19.026;2022-12-07T18:59:16;84.37;;;32.53;;
42760;SDS011;31672;47.638;19.026;2022-12-07T19:04:37;82.57;;;31.10;;
42760;SDS011;31672;47.638;19.026;2022-12-07T19:09:40;85.33;;;29.73;;
42760;SDS011;31672;47.638;19.026;2022-12-07T19:14:43;77.00;;;32.33;;
42760;SDS011;31672;47.638;19.026;2022-12-07T19:19:46;82.43;;;34.10;;
42760;SDS011;31672;47.638;19.026;2022-12-07T19:24:51;72.33;;;29.50;;
42760;SDS011;31672;47.638;19.026;2022-12-07T19:29:56;81.43;;;30.40;;
42760;SDS011;31672;47.638;19.026;2022-12-07T19:35:00;74.17;;;29.10;;
42760;SDS011;31672;47.638;19.026;2022-12-07T19:40:04;56.13;;;22.13;;
42760;SDS011;31672;47.638;19.026;2022-12-07T19:45:08;65.10;;;25.03;;
42760;SDS011;31672;47.638;19.026;2022-12-07T19:50:12;70.53;;;28.10;;
42760;SDS011;31672;47.638;19.026;2022-12-07T19:55:15;83.00;;;32.83;;
42760;SDS011;31672;47.638;19.026;2022-12-07T20:00:18;61.47;;;25.47;;
42760;SDS011;31672;47.638;19.026;2022-12-07T20:05:21;87.43;;;33.83;;
42760;SDS011;31672;47.638;19.026;2022-12-07T20:10:26;94.80;;;35.57;;
42760;SDS011;31672;47.638;19.026;2022-12-07T20:15:29;95.60;;;34.17;;
42760;SDS011;31672;47.638;19.026;2022-12-07T20:20:31;96.10;;;35.97;;
42760;SDS011;31672;47.638;19.026;2022-12-07T20:25:35;102.10;;;35.67;;
42760;SDS011;31672;47.638;19.026;2022-12-07T20:30:44;106.30;;;38.27;;
42760;SDS011;31672;47.638;19.026;2022-12-07T20:35:57;66.87;;;27.60;;
42760;SDS011;31672;47.638;19.026;2022-12-07T20:41:06;88.37;;;34.10;;
42760;SDS011;31672;47.638;19.026;2022-12-07T20:46:30;78.80;;;32.57;;
42760;SDS011;31672;47.638;19.026;2022-12-07T20:51:33;68.43;;;27.40;;
42760;SDS011;31672;47.638;19.026;2022-12-07T20:56:36;66.13;;;26.47;;
42760;SDS011;31672;47.638;19.026;2022-12-07T21:01:39;38.90;;;17.60;;
42760;SDS011;31672;47.638;19.026;2022-12-07T21:06:42;29.17;;;13.07;;
42760;SDS011;31672;47.638;19.026;2022-12-07T21:11:45;33.30;;;13.80;;
42760;SDS011;31672;47.638;19.026;2022-12-07T21:16:48;25.43;;;9.63;;
42760;SDS011;31672;47.638;19.026;2022-12-07T21:21:51;60.70;;;24.23;;
42760;SDS011;31672;47.638;19.026;2022-12-07T21:26:54;63.13;;;24.47;;
42760;SDS011;31672;47.638;19.026;2022-12-07T21:31:57;48.70;;;21.47;;
42760;SDS011;31672;47.638;19.026;2022-12-07T21:37:00;59.17;;;22.80;;
42760;SDS011;31672;47.638;19.026;2022-12-07T21:42:03;59.13;;;25.57;;
42760;SDS011;31672;47.638;19.026;2022-12-07T21:47:06;30.37;;;13.53;;
42760;SDS011;31672;47.638;19.026;2022-12-07T21:52:08;26.47;;;10.20;;
42760;SDS011;31672;47.638;19.026;2022-12-07T21:57:12;20.47;;;10.17;;
42760;SDS011;31672;47.638;19.026;2022-12-07T22:02:15;20.97;;;8.00;;
42760;SDS011;31672;47.638;19.026;2022-12-07T22:07:18;20.20;;;7.47;;
42760;SDS011;31672;47.638;19.026;2022-12-07T22:12:20;23.83;;;7.80;;
42760;SDS011;31672;47.638;19.026;2022-12-07T22:17:23;20.23;;;8.83;;
42760;SDS011;31672;47.638;19.026;2022-12-07T22:22:29;19.40;;;8.30;;
42760;SDS011;31672;47.638;19.026;2022-12-07T22:27:32;41.30;;;15.03;;
42760;SDS011;31672;47.638;19.026;2022-12-07T22:32:35;41.60;;;16.77;;
42760;SDS011;31672;47.638;19.026;2022-12-07T22:37:55;40.97;;;15.63;;
42760;SDS011;31672;47.638;19.026;2022-12-07T22:42:57;41.70;;;16.27;;
42760;SDS011;31672;47.638;19.026;2022-12-07T22:48:00;54.87;;;19.07;;
42760;SDS011;31672;47.638;19.026;2022-12-07T22:53:03;37.27;;;13.33;;
42760;SDS011;31672;47.638;19.026;2022-12-07T22:58:06;39.10;;;14.40;;
42760;SDS011;31672;47.638;19.026;2022-12-07T23:03:09;27.30;;;13.10;;
42760;SDS011;31672;47.638;19.026;2022-12-07T23:08:13;22.40;;;9.00;;
42760;SDS011;31672;47.638;19.026;2022-12-07T23:13:17;23.80;;;9.87;;
42760;SDS011;31672;47.638;19.026;2022-12-07T23:18:37;29.97;;;11.43;;
42760;SDS011;31672;47.638;19.026;2022-12-07T23:23:42;30.67;;;13.10;;
42760;SDS011;31672;47.638;19.026;2022-12-07T23:28:45;31.23;;;13.00;;
42760;SDS011;31672;47.638;19.026;2022-12-07T23:33:48;37.40;;;15.40;;
42760;SDS011;31672;47.638;19.026;2022-12-07T23:38:52;35.43;;;12.67;;
42760;SDS011;31672;47.638;19.026;2022-12-07T23:43:58;28.20;;;11.07;;
42760;SDS011;31672;47.638;19.026;2022-12-07T23:49:02;40.27;;;16.40;;
42760;SDS011;31672;47.638;19.026;2022-12-07T23:54:08;30.67;;;11.40;;
42760;SDS011;31672;47.638;19.026;2022-12-07T23:59:15;24.87;;;10.27;;
